Hlavní strana
METAR-TAF:

METAR-TAF

Letiště :

Vidsel, Švédsko

zeměpisná šířka: 65-52N, zeměpisná délka: 020-08E, výška: 180 m

Aktuální stav počasí

Zpráva byla vytvořena před 27 minutami, v 13:20 UTC
Bezvětří
Teplota -3°C
Vlhkost vzduchu 8%
Tlak 1028 hPa
Viditelnost 10 km a více
Oblačno až skoro zataženo ve výšce 1100 ft

METAR: ESPE 211320Z 00000KT 9999 BKN011 M03/M32 Q1028

Čas: 14:47 (13:47 UTC)

Předpověď počasí

Zpráva byla vytvořena před 2 hodinami a 17 minutami, v 11:30 UTC
Předpověď platná od 21 v 12 UTC do 21 v 21 UTC
vítr z různých směrů 2 kt
Viditelnost 10 km a více
Polojasno ve výšce 700 ft
Oblačno až skoro zataženo ve výšce 3000 ft
Dočasný
od 21 v 12 UTC do 21 v 16 UTC
Oblačno až skoro zataženo ve výšce 700 ft
Pravděpodobnost 40%
od 21 v 16 UTC do 21 v 21 UTC
Viditelnost: 2000 m
Oblačno až skoro zataženo ve výšce 300 ft
kouřmo

TAF: ESPE 211130Z 2112/2121 VRB02KT 9999 SCT007 BKN030 TEMPO 2112/2116 BKN007 PROB40 2116/2121 2000 BR BKN003 RMK MIL

Stav a předpovědi počasí z více než 4 000 letišť (zprávy METAR a TAF).

Červené a žluté tečky na mapě představují dostupné meteorologické stanice.

Když kurzor umístíte na tečku, zobrazí se název stanice.

Pak kliknutím zobrazíte stav a předpověď počasí.

Chcete-li změnit mapu, kliknutím na zelené tlačítko se znaménkem +mapu přiblížíte, kliknutím na zelené tlačítko se znaménkem – mapu oddálíte a kliknutím na zelené šipky přejdete na sousední mapy.


METAR-TAF: